Anza Borrego Desert State Park, California Weather observations

Data are for 10 minute period ending at time listed.
 Day   Time   Solar   Ave.   Ave.  Ave.  Vector  Max.   Baro.   Total    
  of    of     Rad.   Air    Rel.  Wind   Wind   Wind  Press.  Precip.   
Year   Day            Temp.  Hum.  Speed  Dir.   Gust                    
2016   (PST)  Kw/m2    F      %     mph   deg.    mph    mb.     in.     
-------------------------------------------------------------------------
 269    8:20   0.48   88.0    14   11.1   148    15.6   986.3    0.00 
 269    8:30   0.51   87.6    14   13.4   138    20.9   986.4    0.00 
 269    8:40   0.55   87.6    14   13.7   141    23.2   986.4    0.00 
 269    8:50   0.58   87.7    14   14.6   150    21.8   986.5    0.00 
 269    9:00   0.61   87.9    14   17.3   158    26.2   986.5    0.00 
 269    9:10   0.64   88.6    14   15.1   162    21.3   986.4    0.00 
 269    9:20   0.68   89.6    12   11.7   116    20.5   986.5    0.00 
 269    9:30   0.70   90.7    11   10.1   135    17.1   986.5    0.00 
 269    9:40   0.72   90.4    12    6.8   124    13.1   986.5    0.00 
 269    9:50   0.75   91.2    11   10.9   102    17.3   986.4    0.00 
 269   10:00   0.77   91.1    10   10.7    86    17.5   986.5    0.00 
 269   10:10   0.79   91.7    10    8.1    51    14.3   986.5    0.00 
 269   10:20   0.81   92.1     9    8.6    60    16.5   986.4    0.00 
 269   10:30   0.82   92.1     9    7.4    61    14.8   986.3    0.00 
 269   10:40   0.84   92.0     9    7.1   111    11.6   986.1    0.00 
 269   10:50   0.84   92.7     9    8.5    71    14.0   986.1    0.00 
 269   11:00   0.86   93.6     8   12.7     1    22.1   985.9    0.00 
 269   11:10   0.86   93.8     8    7.7    74    15.1   985.8    0.00 
 269   11:20   0.87   93.4     8    8.1    79    15.5   985.7    0.00 
 269   11:30   0.87   93.3     8    8.2    86    13.6   985.5    0.00 
 269   11:40   0.87   93.1     8    6.6    68    11.0   985.4    0.00 
 269   11:50   0.87   94.2     8    3.1    94     7.4   985.2    0.00 
 269   12:00   0.87   94.5     7    7.2    53    13.3   985.0    0.00 
 269   12:10   0.87   94.6     7   14.1    20    23.0   984.9    0.00 
 269   12:20   0.86   94.5     8   15.7    19    21.1   984.8    0.00 
 269   12:30   0.86   94.9     7   16.2    25    25.5   984.7    0.00 
 269   12:40   0.82   94.5     7   16.0    22    23.2   984.6    0.00 
 269   12:50   0.84   95.4     7   13.4    33    21.4   984.5    0.00 
 269   13:00   0.82   95.2     7   16.4    30    26.2   984.4    0.00 
 269   13:10   0.80   94.7     7   13.5    36    21.5   984.3    0.00 
 269   13:20   0.78   96.0     7   13.7    31    19.2   984.2    0.00 
 269   13:30   0.77   95.4     8   12.7    41    16.9   984.0    0.00 
 269   13:40   0.74   95.4     8   15.9    20    24.2   983.8    0.00 
 269   13:50   0.72   95.2     8   14.6    23    21.9   983.9    0.00 
 269   14:00   0.70   95.2     8   14.8    24    22.6   983.8    0.00 
 269   14:10   0.67   95.5     8   15.0    40    22.1   983.7    0.00 
 269   14:20   0.65   95.3     8   15.2    42    24.4   983.7    0.00 
 269   14:30   0.62   95.9     8   14.6    24    22.4   983.7    0.00 
 269   14:40   0.59   95.7     8   13.3    40    20.3   983.7    0.00 
 269   14:50   0.56   95.2     8   13.0    50    20.4   983.6    0.00 
 269   15:00   0.53   95.5     8   13.8    44    21.3   983.5    0.00 
 269   15:10   0.50   95.3     8   13.3    43    20.8   983.4    0.00 
 269   15:20   0.46   95.1     8   10.6    56    17.2   983.3    0.00 
 269   15:30   0.43   95.6     8   11.9    39    19.4   983.2    0.00 
 269   15:40   0.39   95.0     8   12.0    36    19.3   983.1    0.00 
 269   15:50   0.35   94.8     8   10.0    27    15.4   983.1    0.00 
 269   16:00   0.32   94.6     8   12.1    22    19.5   983.0    0.00 
 269   16:10   0.28   94.8     8   11.5    31    15.8   983.0    0.00 
 269   16:20   0.25   95.0     8    8.5    40    13.0   983.0    0.00 
 269   16:30   0.21   95.0     8    6.6    65    10.5   982.9    0.00 
 269   16:40   0.18   94.5     8    7.3    61    10.1   982.8    0.00 
 269   16:50   0.03   93.4     9    6.8    87    11.2   982.8    0.00 
 269   17:00   0.01   91.9     9    5.9    80    11.2   982.7    0.00 
 269   17:10   0.01   91.3     9    5.9    64    11.2   982.6    0.00 
 269   17:20   0.01   89.9    10    2.5    36     5.8   982.5    0.00 
 269   17:30   0.00   88.6    11    2.4    42     6.1   982.3    0.00 
 269   17:40   0.00   87.9    12    3.7    32     5.5   982.3    0.00 
 269   17:50   0.00   86.3    13    2.0   146     5.4   982.3    0.00 
 269   18:00   0.00   84.6    14    4.7   134     6.6   982.4    0.00 
 269   18:10   0.00   86.4    14    7.4   142    12.5   982.6    0.00 
 269   18:20   0.00   86.7    15    8.3   150    13.5   982.7    0.00 
 269   18:30   0.00   86.6    16    9.3   142    15.4   982.8    0.00 
 269   18:40   0.00   86.7    15    6.7   110    12.3   982.9    0.00 
 269   18:50   0.00   85.5    16    2.1   307     4.2   983.1    0.00 
 269   19:00   0.00   84.3    17    3.0   223     6.9   983.3    0.00 
 269   19:10   0.00   83.2    18    4.4   237     6.2   983.4    0.00 
 269   19:20   0.00   82.6    19    3.4   248     6.9   983.5    0.00 
 269   19:30   0.00   81.2    20    3.9   252     5.4   983.7    0.00 
 269   19:40   0.00   79.2    22    3.6   233     4.6   983.8    0.00 
 269   19:50   0.00   77.7    24    2.8   235     4.2   983.9    0.00 
 269   20:00   0.00   76.2    26    4.3   232     6.3   983.9    0.00 
 269   20:10   0.00   76.4    25    6.6   231     8.0   984.0    0.00 
 269   20:20   0.00   77.9    23    7.2   240     8.6   984.0    0.00 
 269   20:30   0.00   79.1    21    7.2   238     8.9   984.0    0.00 
 269   20:40   0.00   78.8    21    7.2   247     8.0   983.9    0.00 
 269   20:50   0.00   77.1    23    4.8   225     6.4   984.0    0.00 
 269   21:00   0.00   77.7    22    3.9   226     4.8   984.0    0.00 
 269   21:10   0.00   77.8    22    4.5   240     6.0   984.0    0.00 
 269   21:20   0.00   78.0    22    2.7   240     4.5   984.0    0.00 
 269   21:30   0.00   77.8    22    2.7   207     4.2   984.0    0.00 
 269   21:40   0.00   78.6    20    1.4   297     5.7   984.0    0.00 
 269   21:50   0.00   82.4    16    7.4   359    11.5   983.9    0.00 
 269   22:00   0.00   85.2    14    9.2    12    13.2   983.8    0.00 
 269   22:10   0.00   85.4    14    7.2    10     9.8   983.7    0.00 
 269   22:20   0.00   84.0    15    5.6    21     8.4   983.7    0.00 
 269   22:30   0.00   83.5    16    5.5     9     9.5   983.6    0.00 
 269   22:40   0.00   84.5    15    4.7    12     8.3   983.7    0.00 
 269   22:50   0.00   84.3    15    5.6     7     7.2   983.6    0.00 
 269   23:00   0.00   84.3    16    4.7    10     7.1   983.6    0.00 
 269   23:10   0.00   83.7    16    4.5    13     8.0   983.6    0.00 
 269   23:20   0.00   82.4    17    1.3     2     3.8   983.6    0.00 
 269   23:30   0.00   82.5    17    0.6    35     3.5   983.5    0.00 
 269   23:40   0.00   80.5    19    1.0   188     2.9   983.5    0.00 
 269   23:50   0.00   79.8    20    2.5   255     6.1   983.5    0.00 
 270    0:00   0.00   78.3    21    5.7   235     8.8   983.4    0.00 
 270    0:10   0.00   79.1    20    7.9   239     9.9   983.6    0.00 
 270    0:20   0.00   80.0    19    8.9   247    11.7   983.5    0.00 
 270    0:30   0.00   80.5    18   10.5   240    13.5   983.4    0.00 
 270    0:40   0.00   81.4    18   10.6   242    14.3   983.3    0.00 
 270    0:50   0.00   81.6    17   10.8   242    13.1   983.3    0.00 
 270    1:00   0.00   81.1    18    7.9   251    10.6   983.3    0.00 
 270    1:10   0.00   79.9    19    8.7   250    11.2   983.2    0.00 
 270    1:20   0.00   80.2    19    7.8   257    11.2   983.2    0.00 
 270    1:30   0.00   79.8    19    8.0   255    10.1   983.1    0.00 
 270    1:40   0.00   81.3    18    7.1   259     9.3   983.1    0.00 
 270    1:50   0.00   82.5    17    6.2   246     8.0   983.1    0.00 
 270    2:00   0.00   81.3    18    3.3   288     5.9   983.0    0.00 
 270    2:10   0.00   80.3    19    3.0   284     5.8   982.9    0.00 
 270    2:20   0.00   80.5    19    2.6   267     6.0   982.9    0.00 
 270    2:30   0.00   80.8    18    5.1   250     7.5   982.9    0.00 
 270    2:40   0.00   78.9    20    5.2   253     6.9   982.8    0.00 
 270    2:50   0.00   80.2    19    7.7   245    10.9   982.8    0.00 
 270    3:00   0.00   80.9    18    7.7   256    10.7   982.8    0.00 
 270    3:10   0.00   80.4    19    6.4   257     8.9   982.8    0.00 
 270    3:20   0.00   81.6    18    6.2   266    11.2   982.8    0.00 
 270    3:30   0.00   83.0    17    7.1   256    10.3   982.8    0.00 
 270    3:40   0.00   83.6    17    7.1   272     9.3   982.7    0.00 
 270    3:50   0.00   82.9    17    4.5   283     6.6   982.7    0.00 
 270    4:00   0.00   79.9    20    4.2   269     8.0   982.7    0.00 
 270    4:10   0.00   80.3    19    4.0   285     5.8   982.8    0.00 
 270    4:20   0.00   79.6    19    1.3   327     4.4   983.0    0.00 
 270    4:30   0.00   79.3    19    1.1    18     2.8   983.1    0.00 
 270    4:40   0.00   79.6    19    0.6    15     1.8   983.2    0.00 
 270    4:50   0.00   78.8    21    3.7   256     6.4   983.2    0.00 
 270    5:00   0.00   76.0    24    3.0   239     7.0   983.3    0.00 
 270    5:10   0.00   75.8    24    4.4   242     6.3   983.4    0.00 
 270    5:20   0.00   77.1    23    4.4   241     6.9   983.4    0.00 
 270    5:30   0.00   79.5    20    6.3   222     9.3   983.4    0.00 
 270    5:40   0.00   79.2    21    4.7   249     7.6   983.5    0.00 
 270    5:50   0.00   76.2    24    3.8   247     6.8   983.6    0.00 
 270    6:00   0.02   75.9    24    3.6   253     5.0   983.7    0.00 
 270    6:10   0.04   78.3    22    2.7   273     4.8   983.8    0.00 
 270    6:20   0.08   78.3    23    3.4   325     6.8   984.0    0.00 
 270    6:30   0.10   80.0    20    3.0   256     6.1   984.1    0.00 
 270    6:40   0.14   81.7    20    4.0   234     5.9   984.1    0.00 
 270    6:50   0.17   83.5    20    4.0   212     5.5   984.1    0.00 
 270    7:00   0.20   85.7    19    4.1   217     5.3   984.2    0.00 
 270    7:10   0.21   88.8    18    2.1   106     3.7   984.2    0.00 
 270    7:20   0.23   86.6    18    2.6    79     4.5   984.3    0.00 
 270    7:30   0.29   85.6    19    2.3    91     4.5   984.4    0.00 
 270    7:40   0.33   86.1    20    2.5     2     4.5   984.4    0.00 
 270    7:50   0.35   86.7    18    2.3   332     4.5   984.5    0.00 
 270    8:00   0.43   89.7    16    2.0   339     3.1   984.5    0.00 
 270    8:10   0.45   91.2    15    3.7     3     7.7   984.5    0.00 

Return to Anza Borrego Desert State Park graphs page.


Western Regional Climate Center,wrcc@dri.edu